createdAt,value
2018-04-30T00:01:58.738Z,99974.64
2018-04-30T00:04:27.197Z,99969.44
2018-04-30T00:06:55.671Z,99965.09
2018-04-30T00:09:24.188Z,99964.69
2018-04-30T00:11:52.692Z,99970.15
2018-04-30T00:14:21.129Z,99964.98
2018-04-30T00:16:49.628Z,99967.56
2018-04-30T00:19:18.139Z,99963.87
2018-04-30T00:21:46.640Z,99965.38
2018-04-30T00:24:15.140Z,99964.83
2018-04-30T00:26:43.608Z,99953.44
2018-04-30T00:29:12.096Z,99962.66
2018-04-30T00:31:40.549Z,99969.63
2018-04-30T00:34:09.040Z,99964.02
2018-04-30T00:36:37.498Z,99968.84
2018-04-30T00:39:06.024Z,99961.69
2018-04-30T00:41:34.519Z,99967.55
2018-04-30T00:44:03.046Z,99966.91
2018-04-30T00:46:31.501Z,99957.84
2018-04-30T00:48:59.952Z,99957.59
2018-04-30T00:51:28.467Z,99963.06
2018-04-30T00:53:56.913Z,99964.28
2018-04-30T00:56:25.356Z,99962.14
2018-04-30T00:58:53.812Z,99956.38
2018-04-30T01:01:22.310Z,99964.58
2018-04-30T01:03:50.765Z,99956.53
2018-04-30T01:06:19.262Z,99951.32
2018-04-30T01:08:47.729Z,99952.68
2018-04-30T01:11:16.212Z,99951.82
2018-04-30T01:13:44.712Z,99949.09
2018-04-30T01:16:13.256Z,99949.03
2018-04-30T01:18:41.804Z,99950.31
2018-04-30T01:21:10.264Z,99944.44
2018-04-30T01:23:39.237Z,99945.39
2018-04-30T01:26:07.696Z,99954.14
2018-04-30T01:28:36.208Z,99951.92
2018-04-30T01:31:04.692Z,99942.61
2018-04-30T01:33:33.188Z,99944.62
2018-04-30T01:36:01.684Z,99943.56
2018-04-30T01:38:30.149Z,99947.40
2018-04-30T01:40:58.610Z,99938.50
2018-04-30T01:43:27.078Z,99946.69
2018-04-30T01:45:55.525Z,99937.23
2018-04-30T01:48:24.024Z,99942.42
2018-04-30T01:50:52.470Z,99935.95
2018-04-30T01:53:20.937Z,99940.60
2018-04-30T01:55:49.424Z,99941.00
2018-04-30T01:58:17.914Z,99939.34
2018-04-30T02:00:46.392Z,99938.22
2018-04-30T02:03:14.901Z,99942.60
2018-04-30T02:05:43.414Z,99939.02
2018-04-30T02:08:11.882Z,99936.58
2018-04-30T02:10:40.386Z,99930.98
2018-04-30T02:13:08.869Z,99930.41
2018-04-30T02:15:37.331Z,99933.29
2018-04-30T02:18:05.830Z,99918.22
2018-04-30T02:20:34.320Z,99930.11
2018-04-30T02:23:02.763Z,99929.28
2018-04-30T02:25:31.277Z,99927.77
2018-04-30T02:27:59.797Z,99929.82
2018-04-30T02:30:28.252Z,99927.19
2018-04-30T02:32:56.716Z,99929.22
2018-04-30T02:35:25.259Z,99926.47
2018-04-30T02:37:53.712Z,99930.91
2018-04-30T02:40:22.213Z,99925.36
2018-04-30T02:42:50.708Z,99921.59
2018-04-30T02:45:19.164Z,99920.18
2018-04-30T02:47:47.625Z,99924.92
2018-04-30T02:50:16.054Z,99928.98
2018-04-30T02:52:44.550Z,99930.51
2018-04-30T02:55:13.013Z,99924.83
2018-04-30T02:57:41.500Z,99926.73
2018-04-30T03:00:09.980Z,99926.44
2018-04-30T03:02:38.452Z,99920.05
2018-04-30T03:05:06.933Z,99924.53
2018-04-30T03:07:35.390Z,99924.09
2018-04-30T03:10:03.911Z,99922.88
2018-04-30T03:12:32.376Z,99923.98
2018-04-30T03:15:00.845Z,99928.59
2018-04-30T03:17:29.357Z,99930.34
2018-04-30T03:19:57.838Z,99928.92
2018-04-30T03:22:26.325Z,99928.23
2018-04-30T03:24:54.781Z,99934.62
2018-04-30T03:27:23.365Z,99930.37
2018-04-30T03:29:51.802Z,99935.77
2018-04-30T03:32:20.245Z,99930.76
2018-04-30T03:34:48.779Z,99943.83
2018-04-30T03:37:17.221Z,99935.65
2018-04-30T03:39:45.660Z,99928.83
2018-04-30T03:42:14.136Z,99931.80
2018-04-30T03:44:42.588Z,99930.77
2018-04-30T03:47:11.122Z,99939.03
2018-04-30T03:49:39.612Z,99942.15
2018-04-30T03:52:08.089Z,99947.78
2018-04-30T03:54:36.571Z,99939.56
2018-04-30T03:57:05.026Z,99947.16
2018-04-30T03:59:33.508Z,99944.75
2018-04-30T04:02:13.620Z,99944.48
2018-04-30T04:04:53.869Z,99936.80
2018-04-30T04:07:22.384Z,99944.36
2018-04-30T04:09:50.840Z,99944.63
2018-04-30T04:12:19.330Z,99950.56
2018-04-30T04:14:47.821Z,99949.95
2018-04-30T04:17:16.307Z,99951.22
2018-04-30T04:19:44.809Z,99950.30
2018-04-30T04:22:13.292Z,99952.70
2018-04-30T04:24:41.754Z,99953.84
2018-04-30T04:27:10.244Z,99947.51
2018-04-30T04:29:38.709Z,99948.36
2018-04-30T04:32:07.247Z,99953.75
2018-04-30T04:34:35.700Z,99955.67
2018-04-30T04:37:04.190Z,99954.30
2018-04-30T04:39:32.650Z,99952.08
2018-04-30T04:42:01.118Z,99953.08
2018-04-30T04:44:29.612Z,99956.13
2018-04-30T04:46:58.085Z,99943.13
2018-04-30T04:49:26.584Z,99950.53
2018-04-30T04:51:55.093Z,99959.17
2018-04-30T04:54:23.608Z,99957.39
2018-04-30T04:56:52.064Z,99946.83
2018-04-30T04:59:20.512Z,99961.47
2018-04-30T05:01:49.009Z,99962.02
2018-04-30T05:04:17.499Z,99961.63
2018-04-30T05:06:45.997Z,99959.03
2018-04-30T05:09:14.473Z,99961.11
2018-04-30T05:11:42.940Z,99957.55
2018-04-30T05:14:11.455Z,99956.28
2018-04-30T05:16:39.936Z,99925.20
2018-04-30T05:19:08.433Z,99937.78
2018-04-30T05:21:36.892Z,99957.93
2018-04-30T05:24:05.430Z,99951.14
2018-04-30T05:26:35.718Z,99947.67
2018-04-30T05:29:04.212Z,99947.36
2018-04-30T05:31:32.817Z,99945.30
2018-04-30T05:34:01.298Z,99945.00
2018-04-30T05:36:29.800Z,99954.11
2018-04-30T05:38:58.304Z,99948.48
2018-04-30T05:41:27.116Z,99948.19
2018-04-30T05:43:55.611Z,99935.95
2018-04-30T05:46:24.122Z,99942.06
2018-04-30T05:48:52.623Z,99938.97
2018-04-30T05:51:21.183Z,99933.69
2018-04-30T05:53:49.734Z,99923.38
2018-04-30T05:56:18.290Z,99926.20
2018-04-30T05:58:46.903Z,99925.37
2018-04-30T06:01:15.402Z,99921.64
2018-04-30T06:03:43.865Z,99919.27
2018-04-30T06:06:12.376Z,99923.83
2018-04-30T06:08:40.816Z,99908.89
2018-04-30T06:11:09.277Z,99908.31
2018-04-30T06:13:37.775Z,99915.20
2018-04-30T06:16:06.256Z,99921.92
2018-04-30T06:18:34.776Z,99923.34
2018-04-30T06:21:03.266Z,99906.28
2018-04-30T06:23:32.647Z,99912.73
2018-04-30T06:26:01.172Z,99906.92
2018-04-30T06:28:29.714Z,99905.48
2018-04-30T06:30:58.201Z,99916.97
2018-04-30T06:33:26.672Z,99911.17
2018-04-30T06:35:55.291Z,99912.52
2018-04-30T06:38:23.710Z,99924.34
2018-04-30T06:40:52.152Z,99915.86
2018-04-30T06:43:20.646Z,99910.14
2018-04-30T06:45:49.125Z,99895.76
2018-04-30T06:48:17.654Z,99901.72
2018-04-30T06:50:46.130Z,99900.38
2018-04-30T06:53:14.638Z,99896.31
2018-04-30T06:55:43.140Z,99881.13
2018-04-30T06:58:11.595Z,99898.08
2018-04-30T07:00:40.087Z,99904.98
2018-04-30T07:03:08.533Z,99887.97
2018-04-30T07:05:37.016Z,99904.22
2018-04-30T07:08:05.509Z,99905.27
2018-04-30T07:10:33.956Z,99901.73
2018-04-30T07:13:02.495Z,99901.95
2018-04-30T07:15:31.009Z,99900.06
2018-04-30T07:17:59.488Z,99890.64
2018-04-30T07:20:27.955Z,99896.52
2018-04-30T07:22:56.445Z,99890.41
2018-04-30T07:25:24.893Z,99880.57
2018-04-30T07:27:53.457Z,99883.39
2018-04-30T07:30:21.884Z,99884.61
2018-04-30T07:32:50.365Z,99887.67
2018-04-30T07:35:18.811Z,99885.10
2018-04-30T07:37:47.294Z,99883.95
2018-04-30T07:40:15.741Z,99880.50
2018-04-30T07:42:44.185Z,99863.47
2018-04-30T07:45:12.704Z,99880.26
2018-04-30T07:47:41.169Z,99881.91
2018-04-30T07:50:09.601Z,99873.09
2018-04-30T07:52:38.744Z,99877.19
2018-04-30T07:55:07.305Z,99868.70
2018-04-30T07:57:35.795Z,99872.10
2018-04-30T08:00:04.325Z,99864.36
2018-04-30T08:02:32.781Z,99873.84
2018-04-30T08:05:01.273Z,99865.72
2018-04-30T08:07:29.765Z,99869.58
2018-04-30T08:09:58.334Z,99865.23
2018-04-30T08:12:26.868Z,99861.84
2018-04-30T08:14:55.423Z,99857.80
2018-04-30T08:17:23.881Z,99858.11
2018-04-30T08:19:52.392Z,99853.78
2018-04-30T08:22:20.839Z,99851.70
2018-04-30T08:24:49.280Z,99851.25
2018-04-30T08:27:17.778Z,99840.05
2018-04-30T08:29:46.283Z,99847.45
2018-04-30T08:32:14.745Z,99843.19
2018-04-30T08:34:43.277Z,99832.56
2018-04-30T08:37:11.766Z,99834.07
2018-04-30T08:39:40.300Z,99815.50
2018-04-30T08:42:08.800Z,99829.30
2018-04-30T08:44:37.363Z,99831.27
2018-04-30T08:47:05.812Z,99812.73
2018-04-30T08:49:34.262Z,99824.25
2018-04-30T08:52:02.862Z,99820.52
2018-04-30T08:54:31.336Z,99819.41
2018-04-30T08:56:59.872Z,99815.31
2018-04-30T08:59:28.324Z,99812.09
2018-04-30T09:01:56.889Z,99823.02
2018-04-30T09:04:25.365Z,99817.09
2018-04-30T09:06:53.825Z,99815.25
2018-04-30T09:09:22.314Z,99814.34
2018-04-30T09:11:50.771Z,99817.34
2018-04-30T09:14:19.261Z,99805.45
2018-04-30T09:16:47.735Z,99805.30
2018-04-30T09:19:16.220Z,99803.75
2018-04-30T09:21:44.697Z,99794.62
2018-04-30T09:24:13.191Z,99794.30
2018-04-30T09:26:41.708Z,99797.78
2018-04-30T09:29:10.216Z,99790.30
2018-04-30T09:31:38.702Z,99781.52
2018-04-30T09:34:07.189Z,99788.27
2018-04-30T09:36:35.669Z,99783.19
2018-04-30T09:39:04.210Z,99780.06
2018-04-30T09:41:32.736Z,99773.34
2018-04-30T09:46:22.408Z,99749.71
2018-04-30T09:48:50.857Z,99761.09
2018-04-30T09:51:19.300Z,99740.58
2018-04-30T09:53:47.812Z,99748.89
2018-04-30T09:56:16.357Z,99745.20
2018-04-30T09:58:44.800Z,99741.76
2018-04-30T10:01:13.289Z,99744.67
2018-04-30T10:03:41.756Z,99742.37
2018-04-30T10:06:10.218Z,99732.80
2018-04-30T10:08:38.704Z,99730.83
2018-04-30T10:11:07.221Z,99711.95
2018-04-30T10:13:35.684Z,99728.95
2018-04-30T10:16:04.132Z,99720.78
2018-04-30T10:18:32.626Z,99716.36
2018-04-30T10:21:01.169Z,99715.23
2018-04-30T10:23:29.776Z,99709.91
2018-04-30T10:25:58.220Z,99702.32
2018-04-30T10:28:26.789Z,99705.88
2018-04-30T10:30:55.242Z,99701.00
2018-04-30T10:33:23.681Z,99698.90
2018-04-30T10:35:52.165Z,99697.64
2018-04-30T10:38:20.668Z,99701.52
2018-04-30T10:40:49.154Z,99692.52
2018-04-30T10:43:17.643Z,99687.86
2018-04-30T10:45:46.119Z,99682.73
2018-04-30T10:48:14.588Z,99680.17
2018-04-30T10:50:43.028Z,99686.64
2018-04-30T10:53:11.521Z,99672.28
2018-04-30T10:55:40.021Z,99674.14
2018-04-30T10:58:08.496Z,99676.45
2018-04-30T11:00:36.952Z,99666.63
2018-04-30T11:03:05.443Z,99664.47
2018-04-30T11:05:33.899Z,99665.84
2018-04-30T11:08:02.382Z,99667.70
2018-04-30T11:10:30.881Z,99666.04
2018-04-30T11:12:59.357Z,99663.81
2018-04-30T11:15:27.836Z,99636.39
2018-04-30T11:17:56.281Z,99653.80
2018-04-30T11:20:24.757Z,99650.90
2018-04-30T11:22:53.196Z,99653.59
2018-04-30T11:25:21.691Z,99645.32
2018-04-30T11:27:50.132Z,99655.51
2018-04-30T11:30:18.609Z,99642.50
2018-04-30T11:32:47.116Z,99638.06
2018-04-30T11:35:15.569Z,99623.36
2018-04-30T11:37:44.082Z,99618.82
2018-04-30T11:40:12.633Z,99620.72
2018-04-30T11:42:41.134Z,99617.62
2018-04-30T11:45:09.613Z,99624.04
2018-04-30T11:47:38.082Z,99624.02
2018-04-30T11:50:06.634Z,99614.81
2018-04-30T11:52:35.093Z,99596.33
2018-04-30T11:55:03.595Z,99605.61
2018-04-30T11:57:32.082Z,99600.17
2018-04-30T12:00:00.606Z,99601.77
2018-04-30T12:02:29.128Z,99601.67
2018-04-30T12:04:57.632Z,99601.93
2018-04-30T12:07:26.116Z,99598.91
2018-04-30T12:09:54.578Z,99587.97
2018-04-30T12:12:23.085Z,99592.28
2018-04-30T12:14:51.591Z,99588.56
2018-04-30T12:17:20.053Z,99584.28
2018-04-30T12:19:48.552Z,99582.30
2018-04-30T12:22:17.076Z,99579.16
2018-04-30T12:24:45.582Z,99580.22
2018-04-30T12:27:14.083Z,99584.39
2018-04-30T12:29:42.967Z,99584.62
2018-04-30T12:32:11.415Z,99576.59
2018-04-30T12:34:39.868Z,99569.92
2018-04-30T12:37:08.369Z,99557.67
2018-04-30T12:39:36.864Z,99562.69
2018-04-30T12:42:05.364Z,99564.50
2018-04-30T12:44:33.820Z,99537.63
2018-04-30T12:47:02.283Z,99541.51
2018-04-30T12:49:30.847Z,99537.05
2018-04-30T12:51:59.357Z,99543.59
2018-04-30T12:54:27.819Z,99535.56
2018-04-30T12:56:56.327Z,99532.05
2018-04-30T12:59:24.825Z,99527.33
2018-04-30T13:01:53.372Z,99523.84
2018-04-30T13:04:21.893Z,99534.70
2018-04-30T13:06:50.382Z,99537.58
2018-04-30T13:09:18.831Z,99538.36
2018-04-30T13:11:47.331Z,99529.84
2018-04-30T13:14:15.849Z,99527.64
2018-04-30T13:16:44.369Z,99521.44
2018-04-30T13:19:12.856Z,99520.45
2018-04-30T13:21:41.344Z,99517.08
2018-04-30T13:24:09.802Z,99521.03
2018-04-30T13:26:38.344Z,99515.69
2018-04-30T13:29:06.787Z,99526.39
2018-04-30T13:31:35.237Z,99519.75
2018-04-30T13:34:03.696Z,99524.89
2018-04-30T13:36:32.206Z,99525.12
2018-04-30T13:39:00.658Z,99520.56
2018-04-30T13:41:29.120Z,99521.57
2018-04-30T13:43:57.777Z,99519.05
2018-04-30T13:46:26.411Z,99511.45
2018-04-30T13:48:55.025Z,99514.53
2018-04-30T13:51:23.517Z,99517.80
2018-04-30T13:53:52.011Z,99512.25
2018-04-30T13:56:20.456Z,99490.20
2018-04-30T13:58:48.944Z,99512.92
2018-04-30T14:01:17.535Z,99520.52
2018-04-30T14:03:46.005Z,99526.84
2018-04-30T14:06:14.463Z,99503.52
2018-04-30T14:08:42.940Z,99525.92
2018-04-30T14:11:11.384Z,99533.55
2018-04-30T14:13:39.870Z,99519.50
2018-04-30T14:16:08.368Z,99532.42
2018-04-30T14:18:36.822Z,99535.95
2018-04-30T14:21:05.352Z,99539.39
2018-04-30T14:23:33.819Z,99539.48
2018-04-30T14:26:02.305Z,99532.77
2018-04-30T14:28:30.819Z,99534.78
2018-04-30T14:30:59.269Z,99524.95
2018-04-30T14:33:28.234Z,99523.71
2018-04-30T14:35:56.784Z,99524.17
2018-04-30T14:38:25.275Z,99510.53
2018-04-30T14:40:53.753Z,99510.31
2018-04-30T14:43:22.196Z,99516.89
2018-04-30T14:45:50.772Z,99524.61
2018-04-30T14:48:19.212Z,99522.35
2018-04-30T14:50:47.661Z,99512.77
2018-04-30T14:53:16.141Z,99515.16
2018-04-30T14:55:44.612Z,99506.25
2018-04-30T14:58:13.060Z,99516.42
2018-04-30T15:00:41.580Z,99506.77
2018-04-30T15:03:10.020Z,99514.39
2018-04-30T15:05:38.472Z,99516.41
2018-04-30T15:08:06.956Z,99513.55
2018-04-30T15:10:35.418Z,99513.72
2018-04-30T15:13:03.896Z,99513.83
2018-04-30T15:15:32.337Z,99519.13
2018-04-30T15:18:00.808Z,99511.03
2018-04-30T15:20:29.294Z,99518.48
2018-04-30T15:22:57.741Z,99508.22
2018-04-30T15:25:26.233Z,99530.91
2018-04-30T15:27:54.677Z,99518.14
2018-04-30T15:30:23.115Z,99527.16
2018-04-30T15:32:51.604Z,99509.69
2018-04-30T15:35:20.029Z,99525.19
2018-04-30T15:37:48.501Z,99516.14
2018-04-30T15:40:16.949Z,99518.77
2018-04-30T15:42:45.392Z,99519.72
2018-04-30T15:45:13.903Z,99521.69
2018-04-30T15:47:42.352Z,99523.69
2018-04-30T15:50:10.792Z,99520.95
2018-04-30T15:52:39.290Z,99512.67
2018-04-30T15:55:07.799Z,99509.05
2018-04-30T15:57:36.233Z,99505.99
2018-04-30T16:00:04.713Z,99506.83
2018-04-30T16:02:33.166Z,99501.97
2018-04-30T16:05:01.649Z,99496.94
2018-04-30T16:07:30.144Z,99482.75
2018-04-30T16:09:58.676Z,99485.27
2018-04-30T16:12:27.133Z,99488.20
2018-04-30T16:14:55.613Z,99490.34
2018-04-30T16:17:24.056Z,99483.37
2018-04-30T16:19:52.549Z,99485.34
2018-04-30T16:22:20.995Z,99483.58
2018-04-30T16:24:49.481Z,99483.09
2018-04-30T16:27:18.096Z,99484.45
2018-04-30T16:29:46.539Z,99481.31
2018-04-30T16:32:15.040Z,99484.88
2018-04-30T16:34:43.520Z,99485.70
2018-04-30T16:37:12.000Z,99480.85
2018-04-30T16:39:40.546Z,99484.27
2018-04-30T16:42:08.989Z,99476.55
2018-04-30T16:44:37.468Z,99484.45
2018-04-30T16:47:05.990Z,99479.97
2018-04-30T16:49:34.470Z,99485.70
2018-04-30T16:52:02.924Z,99498.09
2018-04-30T16:54:31.414Z,99504.85
2018-04-30T16:56:59.900Z,99509.24
2018-04-30T16:59:28.380Z,99501.95
2018-04-30T17:01:56.824Z,99495.78
2018-04-30T17:04:25.337Z,99505.63
2018-04-30T17:06:53.788Z,99505.64
2018-04-30T17:09:22.260Z,99506.77
2018-04-30T17:11:50.775Z,99503.20
2018-04-30T17:14:19.220Z,99511.91
2018-04-30T17:16:47.705Z,99515.34
2018-04-30T17:19:16.192Z,99510.63
2018-04-30T17:21:44.634Z,99515.41
2018-04-30T17:24:13.096Z,99515.81
2018-04-30T17:26:41.609Z,99516.13
2018-04-30T17:29:10.108Z,99511.64
2018-04-30T17:31:38.580Z,99525.06
2018-04-30T17:34:07.072Z,99522.38
2018-04-30T17:36:35.601Z,99526.13
2018-04-30T17:39:04.085Z,99527.73
2018-04-30T17:41:32.575Z,99526.84
2018-04-30T17:44:01.149Z,99533.08
2018-04-30T17:46:29.592Z,99539.89
2018-04-30T17:48:58.028Z,99538.36
2018-04-30T17:51:26.508Z,99534.70
2018-04-30T17:53:54.952Z,99540.63
2018-04-30T17:56:23.448Z,99541.75
2018-04-30T17:58:51.954Z,99538.80
2018-04-30T18:01:20.426Z,99543.33
2018-04-30T18:03:48.876Z,99552.67
2018-04-30T18:06:17.458Z,99545.45
2018-04-30T18:08:45.908Z,99543.95
2018-04-30T18:11:14.393Z,99552.34
2018-04-30T18:13:42.876Z,99554.70
2018-04-30T18:16:11.324Z,99554.52
2018-04-30T18:18:40.444Z,99564.33
2018-04-30T18:21:08.892Z,99569.13
2018-04-30T18:23:37.340Z,99567.87
2018-04-30T18:26:05.868Z,99579.53
2018-04-30T18:28:34.335Z,99581.70
2018-04-30T18:31:02.818Z,99568.77
2018-04-30T18:33:31.294Z,99590.80
2018-04-30T18:35:59.772Z,99591.17
2018-04-30T18:38:28.256Z,99597.45
2018-04-30T18:40:56.740Z,99599.72
2018-04-30T18:43:25.217Z,99605.41
2018-04-30T18:45:53.717Z,99600.16
2018-04-30T18:48:22.204Z,99604.11
2018-04-30T18:50:50.684Z,99608.20
2018-04-30T18:53:19.169Z,99609.86
2018-04-30T18:55:47.636Z,99613.66
2018-04-30T18:58:16.121Z,99618.92
2018-04-30T19:00:44.611Z,99614.19
2018-04-30T19:03:13.068Z,99604.33
2018-04-30T19:05:41.559Z,99623.02
2018-04-30T19:08:10.064Z,99625.03
2018-04-30T19:10:38.544Z,99622.51
2018-04-30T19:13:07.013Z,99618.80
2018-04-30T19:15:35.484Z,99619.20
2018-04-30T19:18:03.994Z,99617.34
2018-04-30T19:20:32.480Z,99618.85
2018-04-30T19:23:00.940Z,99620.39
2018-04-30T19:25:29.428Z,99622.69
2018-04-30T19:27:57.880Z,99621.44
2018-04-30T19:30:26.365Z,99617.00
2018-04-30T19:32:54.825Z,99626.79
2018-04-30T19:35:23.318Z,99622.91
2018-04-30T19:37:51.809Z,99616.91
2018-04-30T19:40:20.275Z,99625.98
2018-04-30T19:42:48.728Z,99630.11
2018-04-30T19:45:17.237Z,99629.88
2018-04-30T19:47:45.725Z,99624.45
2018-04-30T19:50:14.172Z,99638.57
2018-04-30T19:52:42.672Z,99642.35
2018-04-30T19:55:11.157Z,99640.06
2018-04-30T19:57:39.612Z,99638.36
2018-04-30T20:00:08.061Z,99638.69
2018-04-30T20:02:36.549Z,99642.54
2018-04-30T20:05:05.024Z,99634.95
2018-04-30T20:07:33.504Z,99629.88
2018-04-30T20:10:01.956Z,99636.48
2018-04-30T20:12:30.445Z,99638.84
2018-04-30T20:14:58.910Z,99642.66
2018-04-30T20:17:27.403Z,99643.70
2018-04-30T20:19:55.896Z,99646.75
2018-04-30T20:22:24.348Z,99647.12
2018-04-30T20:24:52.841Z,99649.38
2018-04-30T20:27:21.293Z,99651.80
2018-04-30T20:29:49.781Z,99652.43
2018-04-30T20:32:18.257Z,99652.20
2018-04-30T20:34:46.732Z,99654.64
2018-04-30T20:37:15.224Z,99659.92
2018-04-30T20:39:43.710Z,99657.51
2018-04-30T20:42:12.208Z,99658.70
2018-04-30T20:44:40.696Z,99655.08
2018-04-30T20:47:09.161Z,99660.80
2018-04-30T20:49:37.641Z,99662.50
2018-04-30T20:52:06.140Z,99663.13
2018-04-30T20:54:34.589Z,99661.91
2018-04-30T20:57:03.043Z,99659.70
2018-04-30T20:59:31.528Z,99670.58
2018-04-30T21:02:00.014Z,99676.01
2018-04-30T21:04:28.476Z,99682.79
2018-04-30T21:06:56.961Z,99681.70
2018-04-30T21:09:25.442Z,99681.31
2018-04-30T21:11:53.955Z,99686.72
2018-04-30T21:14:22.397Z,99689.16
2018-04-30T21:16:50.881Z,99693.27
2018-04-30T21:19:19.364Z,99690.73
2018-04-30T21:21:47.817Z,99694.66
2018-04-30T21:24:16.385Z,99698.41
2018-04-30T21:26:44.848Z,99711.73
2018-04-30T21:29:13.340Z,99703.93
2018-04-30T21:31:41.798Z,99705.38
2018-04-30T21:34:10.300Z,99706.67
2018-04-30T21:36:38.755Z,99695.63
2018-04-30T21:39:07.263Z,99699.70
2018-04-30T21:41:35.753Z,99712.28
2018-04-30T21:44:04.244Z,99722.09
2018-04-30T21:46:32.829Z,99712.23
2018-04-30T21:49:01.321Z,99724.88
2018-04-30T21:51:29.774Z,99726.90
2018-04-30T21:53:58.276Z,99725.69
2018-04-30T21:56:26.761Z,99719.45
2018-04-30T21:58:55.208Z,99718.71
2018-04-30T22:01:23.701Z,99727.19
2018-04-30T22:03:52.184Z,99726.82
2018-04-30T22:06:20.688Z,99732.88
2018-04-30T22:08:49.141Z,99729.59
2018-04-30T22:11:17.644Z,99717.13
2018-04-30T22:13:46.140Z,99722.48
2018-04-30T22:16:14.593Z,99723.23
2018-04-30T22:18:43.077Z,99711.17
2018-04-30T22:21:11.532Z,99704.77
2018-04-30T22:23:40.045Z,99717.47
2018-04-30T22:26:08.520Z,99712.82
2018-04-30T22:28:36.996Z,99708.42
2018-04-30T22:31:05.512Z,99707.77
2018-04-30T22:33:34.035Z,99702.03
2018-04-30T22:36:02.520Z,99699.44
2018-04-30T22:38:31.013Z,99695.61
2018-04-30T22:40:59.476Z,99694.80
2018-04-30T22:43:27.963Z,99686.78
2018-04-30T22:45:56.423Z,99673.13
2018-04-30T22:48:24.932Z,99678.86
2018-04-30T22:50:53.398Z,99674.38
2018-04-30T22:53:21.868Z,99667.11
2018-04-30T22:55:50.372Z,99663.71
2018-04-30T22:58:18.839Z,99656.22
2018-04-30T23:00:47.340Z,99652.52
2018-04-30T23:03:15.832Z,99656.78
2018-04-30T23:05:44.336Z,99649.27
2018-04-30T23:08:12.806Z,99647.50
2018-04-30T23:10:41.319Z,99641.63
2018-04-30T23:13:09.809Z,99645.38
2018-04-30T23:15:38.301Z,99642.80
2018-04-30T23:18:06.817Z,99633.89
2018-04-30T23:20:35.280Z,99632.55
2018-04-30T23:23:03.748Z,99629.86
2018-04-30T23:25:32.252Z,99637.27
2018-04-30T23:28:00.716Z,99640.61
2018-04-30T23:30:29.228Z,99639.89
2018-04-30T23:32:57.741Z,99634.71
2018-04-30T23:35:26.196Z,99631.87
2018-04-30T23:37:54.702Z,99639.23
2018-04-30T23:40:23.226Z,99638.89
2018-04-30T23:42:51.724Z,99639.14
2018-04-30T23:45:20.246Z,99632.83
2018-04-30T23:47:48.721Z,99629.83
2018-04-30T23:50:17.203Z,99634.87
2018-04-30T23:52:45.714Z,99635.84
2018-04-30T23:55:14.170Z,99635.70
2018-04-30T23:57:42.642Z,99637.59
